Time;durP1;ratioP1;P1;durP2;ratioP2;P2;SDS_P1;SDS_P2;PMS_P1;PMS_P2;Temp;Humidity;BMP_temperature;BMP_pressure;BME280_temperature;BME280_humidity;BME280_pressure;Samples;Min_cycle;Max_cycle;Signal;HPM_P1;HPM_P2
2022/07/25 00:01:47;;;;;;;5.75;5.13;;;22.70;99.90;;;;;;5073379;28;20057;-68
2022/07/25 00:04:13;;;;;;;8.10;5.50;;;22.70;99.90;;;;;;5038440;28;20120;-68
2022/07/25 00:06:40;;;;;;;7.82;5.50;;;22.70;99.90;;;;;;5077999;28;20059;-67
2022/07/25 00:09:07;;;;;;;6.00;5.40;;;22.70;99.90;;;;;;5050292;28;20049;-68
2022/07/25 00:11:33;;;;;;;7.28;5.30;;;22.60;99.90;;;;;;5046903;28;20055;-68
2022/07/25 00:13:59;;;;;;;5.72;5.13;;;22.60;99.90;;;;;;5046669;28;20127;-68
2022/07/25 00:16:25;;;;;;;8.07;5.93;;;22.60;99.90;;;;;;5064642;28;20041;-68
2022/07/25 00:18:52;;;;;;;6.97;6.13;;;22.60;99.90;;;;;;5048119;28;20455;-68
2022/07/25 00:21:18;;;;;;;8.27;6.10;;;22.60;99.90;;;;;;5047400;28;20120;-68
2022/07/25 00:23:44;;;;;;;8.20;6.47;;;22.60;99.90;;;;;;5015602;28;20052;-69
2022/07/25 00:26:10;;;;;;;7.70;6.43;;;22.60;99.90;;;;;;5080716;28;20517;-68
2022/07/25 00:28:36;;;;;;;8.13;6.93;;;22.50;99.90;;;;;;5048159;28;20045;-69
2022/07/25 00:31:02;;;;;;;7.72;7.00;;;22.50;99.90;;;;;;5083271;28;20118;-68
2022/07/25 00:33:29;;;;;;;7.38;6.57;;;22.40;99.90;;;;;;5032170;28;20487;-69
2022/07/25 00:35:55;;;;;;;8.52;7.68;;;22.40;99.90;;;;;;5032257;28;20049;-68
2022/07/25 00:38:21;;;;;;;10.88;7.60;;;22.40;99.90;;;;;;5048152;28;20083;-68
2022/07/25 00:40:48;;;;;;;9.63;7.85;;;22.30;99.90;;;;;;5053402;28;20060;-67
2022/07/25 00:43:14;;;;;;;9.07;7.63;;;22.30;99.90;;;;;;5049742;28;20487;-68
2022/07/25 00:45:40;;;;;;;8.80;7.88;;;22.30;99.90;;;;;;5048453;28;20049;-67
2022/07/25 00:48:07;;;;;;;9.45;7.63;;;22.20;99.90;;;;;;5080790;28;20124;-67
2022/07/25 00:50:34;;;;;;;8.45;7.60;;;22.20;99.90;;;;;;5072737;28;20061;-70
2022/07/25 00:53:00;;;;;;;9.85;8.30;;;22.10;99.90;;;;;;5055770;28;20084;-67
2022/07/25 00:55:27;;;;;;;9.38;8.38;;;22.10;99.90;;;;;;5048407;28;20517;-67
2022/07/25 00:57:52;;;;;;;9.50;8.23;;;22.00;99.90;;;;;;5049263;28;20056;-68
2022/07/25 01:00:19;;;;;;;10.20;7.97;;;21.90;99.90;;;;;;5064699;28;20103;-68
2022/07/25 01:02:45;;;;;;;10.32;8.70;;;21.90;99.90;;;;;;5031708;28;20069;-67
2022/07/25 01:05:11;;;;;;;9.52;8.48;;;21.80;99.90;;;;;;5046728;28;20045;-67
2022/07/25 01:07:38;;;;;;;10.48;8.82;;;21.80;99.90;;;;;;5016855;28;20051;-68
2022/07/25 01:10:05;;;;;;;11.18;9.07;;;21.80;99.90;;;;;;5062518;28;20029;-68
2022/07/25 01:12:31;;;;;;;11.45;9.38;;;21.70;99.90;;;;;;5032553;28;20482;-69
2022/07/25 01:14:57;;;;;;;10.00;8.82;;;21.70;99.90;;;;;;5049522;28;20084;-67
2022/07/25 01:17:23;;;;;;;13.80;9.38;;;21.60;99.90;;;;;;5082340;28;20060;-67
2022/07/25 01:19:50;;;;;;;12.73;10.25;;;21.50;99.90;;;;;;5048153;28;20053;-68
2022/07/25 01:22:16;;;;;;;12.90;9.85;;;21.50;99.90;;;;;;5033514;28;20051;-68
2022/07/25 01:24:42;;;;;;;12.73;10.60;;;21.40;99.90;;;;;;5051359;28;20048;-71
2022/07/25 01:27:08;;;;;;;15.73;11.18;;;21.40;99.90;;;;;;5053321;28;20355;-68
2022/07/25 01:29:34;;;;;;;13.10;10.98;;;21.40;99.90;;;;;;5052628;28;20088;-68
2022/07/25 01:32:00;;;;;;;13.45;10.98;;;21.40;99.90;;;;;;5059412;28;20136;-68
2022/07/25 01:34:26;;;;;;;13.75;10.55;;;21.40;99.90;;;;;;5066956;28;20051;-69
2022/07/25 01:36:52;;;;;;;16.38;11.27;;;21.30;99.90;;;;;;5053148;28;20056;-67
2022/07/25 01:39:18;;;;;;;13.85;11.75;;;21.40;99.90;;;;;;5052849;28;20107;-67
2022/07/25 01:41:44;;;;;;;16.83;11.60;;;21.30;99.90;;;;;;5033977;28;20698;-67
2022/07/25 01:44:09;;;;;;;15.52;12.07;;;21.30;99.90;;;;;;5036183;28;20043;-67
2022/07/25 01:46:35;;;;;;;14.68;12.45;;;21.30;99.90;;;;;;5018627;28;20497;-67
2022/07/25 01:49:01;;;;;;;15.20;11.60;;;21.30;99.90;;;;;;5069305;28;20052;-67
2022/07/25 01:51:27;;;;;;;14.02;11.35;;;21.30;99.90;;;;;;5066312;28;20074;-68
2022/07/25 01:53:53;;;;;;;14.05;11.85;;;21.20;99.90;;;;;;5050123;28;20098;-68
2022/07/25 01:56:19;;;;;;;17.05;12.02;;;21.20;99.90;;;;;;5048995;28;20052;-67
2022/07/25 01:58:45;;;;;;;13.65;12.15;;;21.20;99.90;;;;;;5041702;28;20107;-67
2022/07/25 02:01:11;;;;;;;14.00;11.98;;;21.10;99.90;;;;;;5084778;28;20048;-68
2022/07/25 02:03:36;;;;;;;13.88;12.13;;;21.10;99.90;;;;;;5024616;28;20047;-67
2022/07/25 02:06:05;;;;;;;16.58;12.40;;;21.10;99.90;;;;;;5053358;28;20053;-68
2022/07/25 02:08:32;;;;;;;14.73;12.18;;;21.10;99.90;;;;;;5051158;28;20044;-67
2022/07/25 02:10:59;;;;;;;14.65;12.40;;;21.00;99.90;;;;;;5068489;28;20088;-66
2022/07/25 02:13:25;;;;;;;15.82;12.35;;;21.00;99.90;;;;;;5068720;28;20067;-67
2022/07/25 02:15:51;;;;;;;14.23;12.73;;;20.90;99.90;;;;;;5034218;28;20520;-68
2022/07/25 02:18:17;;;;;;;16.45;12.25;;;20.90;99.90;;;;;;5051029;28;20053;-68
2022/07/25 02:20:43;;;;;;;16.88;12.57;;;20.90;99.90;;;;;;5034759;28;20376;-68
2022/07/25 02:23:09;;;;;;;17.52;13.40;;;20.90;99.90;;;;;;5051655;28;20110;-67
2022/07/25 02:25:36;;;;;;;15.65;13.48;;;20.80;99.90;;;;;;5051519;28;20492;-68
2022/07/25 02:28:02;;;;;;;18.83;13.48;;;20.80;99.90;;;;;;5033235;28;20056;-70
2022/07/25 02:30:28;;;;;;;18.40;13.50;;;20.80;99.90;;;;;;5051663;28;20053;-68
2022/07/25 02:32:54;;;;;;;21.08;14.85;;;20.80;99.90;;;;;;5056510;28;20053;-68
2022/07/25 02:35:20;;;;;;;18.45;14.23;;;20.70;99.90;;;;;;5046013;28;20494;-71
2022/07/25 02:37:46;;;;;;;18.20;14.23;;;20.70;99.90;;;;;;5044125;28;20071;-68
2022/07/25 02:40:12;;;;;;;19.20;14.35;;;20.70;99.90;;;;;;5051243;28;20052;-71
2022/07/25 02:42:38;;;;;;;16.00;13.38;;;20.60;99.90;;;;;;5018961;28;20052;-67
2022/07/25 02:45:05;;;;;;;16.88;14.30;;;20.60;99.90;;;;;;5017997;28;20052;-67
2022/07/25 02:47:31;;;;;;;17.08;15.15;;;20.50;99.90;;;;;;5039358;28;20491;-69
2022/07/25 02:49:57;;;;;;;18.92;14.68;;;20.50;99.90;;;;;;5038025;28;20064;-68
2022/07/25 02:52:23;;;;;;;16.50;14.07;;;20.40;99.90;;;;;;5051462;28;20142;-68
2022/07/25 02:54:49;;;;;;;17.23;15.23;;;20.40;99.90;;;;;;5051148;28;20380;-67
2022/07/25 02:57:15;;;;;;;18.35;15.73;;;20.30;99.90;;;;;;5038916;28;20483;-67
2022/07/25 02:59:41;;;;;;;19.25;14.60;;;20.30;99.90;;;;;;5051221;28;20045;-68
2022/07/25 03:02:07;;;;;;;17.70;15.05;;;20.20;99.90;;;;;;5050652;28;20041;-67
2022/07/25 03:04:33;;;;;;;23.90;15.68;;;20.20;99.90;;;;;;5051306;28;20091;-67
2022/07/25 03:07:00;;;;;;;18.33;15.05;;;20.20;99.90;;;;;;5049383;28;20554;-68
2022/07/25 03:09:26;;;;;;;20.83;14.82;;;20.20;99.90;;;;;;5047243;28;20096;-67
2022/07/25 03:11:52;;;;;;;19.52;14.93;;;20.10;99.90;;;;;;5051106;28;20045;-68
2022/07/25 03:14:18;;;;;;;17.65;15.00;;;20.10;99.90;;;;;;5051086;28;20384;-67
2022/07/25 03:16:44;;;;;;;20.42;16.02;;;20.10;99.90;;;;;;5048160;28;20517;-67
2022/07/25 03:19:11;;;;;;;20.65;14.93;;;20.10;99.90;;;;;;5061987;28;20045;-67
2022/07/25 03:21:38;;;;;;;18.33;14.88;;;20.10;99.90;;;;;;5049924;28;20110;-68
2022/07/25 03:24:04;;;;;;;19.17;15.52;;;20.10;99.90;;;;;;5033995;28;20107;-67
2022/07/25 03:26:30;;;;;;;18.85;15.30;;;20.10;99.90;;;;;;5048442;28;20388;-69
2022/07/25 03:28:56;;;;;;;18.48;15.32;;;20.10;99.90;;;;;;5053766;28;20048;-67
2022/07/25 03:31:22;;;;;;;18.95;15.82;;;20.10;99.90;;;;;;5054885;28;20067;-67
2022/07/25 03:33:49;;;;;;;18.25;15.75;;;20.20;99.90;;;;;;5041044;28;20044;-67
2022/07/25 03:36:15;;;;;;;20.20;15.35;;;20.20;99.90;;;;;;5054859;28;20052;-70
2022/07/25 03:38:41;;;;;;;17.70;15.48;;;20.20;99.90;;;;;;5032861;28;20048;-68
2022/07/25 03:41:07;;;;;;;17.55;14.85;;;20.10;99.90;;;;;;5031790;28;20044;-68
2022/07/25 03:43:33;;;;;;;19.58;15.95;;;20.10;99.90;;;;;;5051056;28;20397;-67
2022/07/25 03:46:00;;;;;;;19.23;15.13;;;20.10;99.90;;;;;;5033526;28;20053;-69
2022/07/25 03:48:26;;;;;;;16.55;14.75;;;20.10;99.90;;;;;;5049610;28;20124;-68
2022/07/25 03:50:52;;;;;;;19.15;15.23;;;20.10;99.90;;;;;;5048679;28;20379;-68
2022/07/25 03:53:18;;;;;;;16.70;14.55;;;20.10;99.90;;;;;;5032985;28;20041;-67
2022/07/25 03:55:44;;;;;;;18.08;15.23;;;20.10;99.90;;;;;;5026868;28;20048;-67
2022/07/25 03:58:10;;;;;;;18.23;14.57;;;20.10;99.90;;;;;;5033681;28;20395;-67
2022/07/25 04:00:36;;;;;;;19.25;15.30;;;20.10;99.90;;;;;;5032477;28;20049;-67
2022/07/25 04:03:03;;;;;;;17.00;14.38;;;20.10;99.90;;;;;;5050232;28;20152;-67
2022/07/25 04:05:29;;;;;;;18.98;14.80;;;20.20;99.90;;;;;;5049473;28;20135;-67
2022/07/25 04:07:55;;;;;;;19.48;14.95;;;20.20;99.90;;;;;;5050321;28;20041;-68
2022/07/25 04:10:21;;;;;;;19.85;15.10;;;20.20;99.90;;;;;;5047188;28;20040;-68
2022/07/25 04:12:47;;;;;;;18.13;15.20;;;20.20;99.90;;;;;;5033784;28;20127;-68
2022/07/25 04:15:13;;;;;;;17.05;14.65;;;20.10;99.90;;;;;;5053959;28;20063;-68
2022/07/25 04:17:39;;;;;;;19.30;15.93;;;20.10;99.90;;;;;;5033735;28;20533;-68
2022/07/25 04:20:06;;;;;;;18.08;15.10;;;20.00;99.90;;;;;;5032470;28;20052;-68
2022/07/25 04:22:32;;;;;;;20.65;14.85;;;20.00;99.90;;;;;;5066783;28;20045;-71
2022/07/25 04:24:58;;;;;;;16.70;14.90;;;20.00;99.90;;;;;;5015097;28;20084;-68
2022/07/25 04:27:24;;;;;;;18.33;15.05;;;20.00;99.90;;;;;;5048395;28;20046;-66
2022/07/25 04:29:50;;;;;;;17.65;15.02;;;20.00;99.90;;;;;;5048247;28;20047;-68
2022/07/25 04:32:18;;;;;;;17.23;14.48;;;20.00;99.90;;;;;;5044329;28;20056;-68
2022/07/25 04:34:44;;;;;;;20.13;15.38;;;20.00;99.90;;;;;;5029560;28;20135;-67
2022/07/25 04:37:10;;;;;;;17.27;14.77;;;20.00;99.90;;;;;;5058220;28;20529;-67
2022/07/25 04:39:36;;;;;;;16.88;15.07;;;20.10;99.90;;;;;;5032578;28;20044;-68
2022/07/25 04:42:02;;;;;;;17.23;15.25;;;20.10;99.90;;;;;;5045192;28;20076;-69
2022/07/25 04:44:28;;;;;;;19.98;15.80;;;20.10;99.90;;;;;;5045609;28;20070;-67
2022/07/25 04:46:54;;;;;;;19.70;15.45;;;20.20;99.90;;;;;;5016917;28;20533;-70
2022/07/25 04:49:20;;;;;;;17.88;15.30;;;20.20;99.90;;;;;;5049294;28;20092;-70
2022/07/25 04:51:46;;;;;;;18.70;15.70;;;20.30;99.90;;;;;;5047835;28;20466;-68
2022/07/25 04:54:11;;;;;;;18.05;15.50;;;20.40;99.90;;;;;;5037370;28;20045;-67
2022/07/25 04:56:38;;;;;;;17.35;14.95;;;20.50;99.90;;;;;;5033284;28;20049;-67
2022/07/25 04:59:04;;;;;;;18.27;14.77;;;20.60;99.90;;;;;;5033833;28;20415;-67
2022/07/25 05:01:30;;;;;;;17.95;15.88;;;20.70;99.90;;;;;;5052505;28;20092;-68
2022/07/25 05:03:55;;;;;;;16.58;14.32;;;20.90;99.90;;;;;;5069257;28;20506;-67
2022/07/25 05:06:21;;;;;;;18.17;15.10;;;21.00;99.90;;;;;;5020556;28;20407;-67
2022/07/25 05:08:47;;;;;;;22.60;16.20;;;21.10;99.90;;;;;;5052592;28;20403;-67
2022/07/25 05:11:13;;;;;;;16.65;14.50;;;21.20;99.90;;;;;;5052888;28;20482;-67
2022/07/25 05:13:39;;;;;;;18.50;14.88;;;21.30;99.90;;;;;;5061984;28;20048;-67
2022/07/25 05:16:05;;;;;;;18.88;14.55;;;21.40;99.90;;;;;;5036817;28;20116;-69
2022/07/25 05:18:33;;;;;;;17.70;15.07;;;21.40;99.90;;;;;;5019018;28;20484;-67
2022/07/25 05:20:59;;;;;;;17.30;14.65;;;21.50;99.90;;;;;;5036138;28;20056;-67
2022/07/25 05:23:25;;;;;;;18.52;14.05;;;21.50;99.90;;;;;;5039625;28;20040;-69
2022/07/25 05:25:50;;;;;;;19.60;14.88;;;21.60;99.90;;;;;;5036610;28;20127;-68
2022/07/25 05:28:16;;;;;;;16.30;14.25;;;21.70;99.90;;;;;;5052727;28;20049;-67
2022/07/25 05:30:42;;;;;;;17.58;14.48;;;21.80;99.90;;;;;;5035950;28;20047;-70
2022/07/25 05:33:08;;;;;;;17.58;14.15;;;21.90;99.90;;;;;;5037007;28;20056;-67
2022/07/25 05:35:34;;;;;;;18.33;13.65;;;22.00;99.90;;;;;;5064086;28;20071;-67
2022/07/25 05:38:00;;;;;;;17.83;15.35;;;22.00;99.90;;;;;;5035083;28;20075;-67
2022/07/25 05:40:26;;;;;;;19.27;13.98;;;22.10;99.90;;;;;;5052646;28;20351;-68
2022/07/25 05:42:52;;;;;;;17.33;14.20;;;22.20;99.90;;;;;;5036291;28;20045;-67
2022/07/25 05:45:18;;;;;;;19.13;14.02;;;22.30;99.90;;;;;;5043215;28;20127;-68
2022/07/25 05:47:44;;;;;;;17.60;14.07;;;22.40;99.90;;;;;;5036005;28;20048;-68
2022/07/25 05:50:10;;;;;;;17.85;13.98;;;22.40;99.90;;;;;;5035720;28;20099;-67
2022/07/25 05:52:36;;;;;;;16.35;13.93;;;22.40;99.90;;;;;;5051839;28;20045;-67
2022/07/25 05:55:02;;;;;;;16.50;13.40;;;22.50;99.90;;;;;;5065146;28;20053;-69
2022/07/25 05:57:28;;;;;;;15.75;12.43;;;22.60;99.90;;;;;;5076410;28;20132;-70
2022/07/25 05:59:54;;;;;;;16.10;13.27;;;22.70;99.90;;;;;;5020577;28;20116;-67
2022/07/25 06:02:19;;;;;;;16.10;13.60;;;22.70;99.90;;;;;;5035817;28;20063;-67
2022/07/25 06:04:45;;;;;;;14.77;13.07;;;22.80;99.90;;;;;;5051298;28;20048;-67
2022/07/25 06:07:11;;;;;;;15.52;13.43;;;22.90;99.90;;;;;;5051966;28;20128;-68
2022/07/25 06:09:37;;;;;;;17.45;13.10;;;22.90;99.90;;;;;;5067527;28;20040;-68
2022/07/25 06:12:04;;;;;;;20.20;12.70;;;23.00;99.90;;;;;;5035526;28;20053;-68
2022/07/25 06:14:30;;;;;;;14.95;13.02;;;23.00;99.90;;;;;;5033996;28;20053;-68
2022/07/25 06:16:56;;;;;;;17.60;13.05;;;23.10;99.90;;;;;;5053772;28;20084;-67
2022/07/25 06:19:22;;;;;;;17.45;12.45;;;23.20;99.90;;;;;;5051615;28;20052;-68
2022/07/25 06:21:48;;;;;;;17.23;13.25;;;23.20;99.90;;;;;;5035096;28;20053;-68
2022/07/25 06:24:14;;;;;;;16.00;12.77;;;23.30;99.90;;;;;;5052303;28;20040;-67
2022/07/25 06:26:40;;;;;;;17.13;12.55;;;23.40;99.90;;;;;;5049506;28;20117;-68
2022/07/25 06:29:06;;;;;;;17.73;12.90;;;23.40;99.90;;;;;;5050531;28;20536;-70
2022/07/25 06:31:33;;;;;;;17.48;12.40;;;23.50;99.90;;;;;;5051794;28;20056;-69
2022/07/25 06:33:59;;;;;;;16.70;12.18;;;23.60;99.90;;;;;;5050373;28;20045;-70
2022/07/25 06:36:25;;;;;;;15.32;11.82;;;23.60;99.90;;;;;;5047824;28;20108;-67
2022/07/25 06:38:51;;;;;;;13.57;11.95;;;23.70;99.90;;;;;;5034732;28;20048;-68
2022/07/25 06:41:17;;;;;;;14.80;12.23;;;23.70;99.90;;;;;;5051162;28;20495;-68
2022/07/25 06:43:44;;;;;;;13.35;11.65;;;23.90;99.90;;;;;;5033913;28;20045;-67
2022/07/25 06:46:10;;;;;;;12.45;11.15;;;24.10;99.90;;;;;;5085209;28;20041;-70
2022/07/25 06:48:36;;;;;;;17.92;12.00;;;24.20;99.90;;;;;;5060741;28;20516;-70
2022/07/25 06:51:04;;;;;;;15.57;12.27;;;24.10;99.90;;;;;;5065034;28;20186;-71
2022/07/25 06:53:30;;;;;;;14.63;11.77;;;24.00;99.90;;;;;;5050086;28;20488;-69
2022/07/25 06:55:56;;;;;;;15.63;12.70;;;24.00;99.90;;;;;;5051683;28;20049;-71
2022/07/25 06:58:22;;;;;;;13.13;11.20;;;24.10;99.90;;;;;;5049989;28;20167;-70
2022/07/25 07:00:49;;;;;;;15.20;11.77;;;24.10;99.90;;;;;;5050246;28;20048;-69
2022/07/25 07:03:15;;;;;;;14.05;11.77;;;24.10;99.90;;;;;;5049597;28;20052;-69
2022/07/25 07:05:41;;;;;;;15.05;11.75;;;24.40;99.90;;;;;;5047882;28;20041;-69
2022/07/25 07:08:07;;;;;;;14.27;11.43;;;24.60;99.90;;;;;;5036129;28;20176;-70
2022/07/25 07:10:34;;;;;;;16.35;11.70;;;24.70;99.90;;;;;;5050832;28;20484;-70
2022/07/25 07:13:12;;;;;;;13.00;10.68;;;24.70;99.90;;;;;;5051392;28;20056;-69
2022/07/25 07:15:42;;;;;;;13.30;10.63;;;24.90;99.90;;;;;;5050988;28;20048;-72
2022/07/25 07:18:09;;;;;;;11.07;9.90;;;25.10;99.90;;;;;;5046829;28;20106;-69
2022/07/25 07:20:35;;;;;;;14.02;10.10;;;25.20;99.90;;;;;;5048322;28;20486;-69
2022/07/25 07:23:01;;;;;;;13.60;10.02;;;25.40;99.90;;;;;;5032167;28;20144;-69
2022/07/25 07:25:28;;;;;;;11.40;10.13;;;25.50;99.90;;;;;;5034490;28;20666;-68
2022/07/25 07:27:53;;;;;;;14.18;10.20;;;25.50;99.90;;;;;;5033859;28;20083;-68
2022/07/25 07:30:20;;;;;;;12.63;9.23;;;25.60;99.90;;;;;;5067018;28;20052;-70
2022/07/25 07:32:46;;;;;;;12.38;9.52;;;25.90;99.90;;;;;;5016899;28;20048;-70
2022/07/25 07:35:15;;;;;;;13.23;10.23;;;25.80;99.90;;;;;;5033186;28;20037;-74
2022/07/25 07:37:45;;;;;;;14.68;10.10;;;26.00;99.90;;;;;;5034992;28;20724;-69
2022/07/25 07:40:13;;;;;;;11.52;10.10;;;26.20;99.90;;;;;;5048584;28;20049;-69
2022/07/25 07:42:44;;;;;;;13.75;9.73;;;26.30;99.90;;;;;;5067430;28;20094;-73
2022/07/25 07:45:19;;;;;;;12.68;10.63;;;26.40;99.90;;;;;;5088668;28;20496;-69
2022/07/25 07:47:46;;;;;;;13.35;11.07;;;26.30;99.90;;;;;;5046737;28;20059;-72
2022/07/25 07:50:14;;;;;;;14.98;11.23;;;26.10;99.90;;;;;;5030475;28;20400;-73
2022/07/25 07:52:40;;;;;;;14.02;11.07;;;26.00;99.90;;;;;;5050674;28;20052;-70
2022/07/25 07:57:51;;;;;;;13.02;10.77;;;25.80;99.90;;;;;;5050400;28;20045;-72
2022/07/25 08:00:18;;;;;;;14.55;11.60;;;25.80;99.90;;;;;;5033848;28;20041;-72
2022/07/25 08:02:46;;;;;;;13.38;11.27;;;25.80;99.90;;;;;;5065850;28;20094;-69
2022/07/25 08:05:18;;;;;;;14.68;11.73;;;26.00;99.90;;;;;;5044458;28;20509;-72
2022/07/25 08:07:44;;;;;;;13.77;11.82;;;25.90;99.90;;;;;;5057461;28;20045;-69
2022/07/25 08:10:10;;;;;;;14.38;11.93;;;26.00;99.90;;;;;;5049471;28;20457;-71
2022/07/25 08:12:40;;;;;;;13.80;11.73;;;26.00;99.90;;;;;;5027663;28;20539;-72
2022/07/25 08:15:07;;;;;;;15.30;11.52;;;26.10;99.90;;;;;;5049220;28;20049;-70
2022/07/25 08:17:33;;;;;;;15.75;12.32;;;26.10;99.90;;;;;;5032186;28;20802;-70
2022/07/25 08:19:59;;;;;;;15.60;12.45;;;26.30;99.90;;;;;;5049350;28;20174;-72
2022/07/25 08:22:44;;;;;;;14.35;12.30;;;26.40;99.90;;;;;;5050020;28;20526;-70
2022/07/25 08:25:14;;;;;;;12.88;10.80;;;26.50;99.90;;;;;;5030897;28;20048;-70
2022/07/25 08:27:40;;;;;;;16.63;11.68;;;26.60;99.90;;;;;;5053481;28;20075;-70
2022/07/25 08:30:07;;;;;;;13.10;11.02;;;26.80;99.90;;;;;;5049189;28;20142;-69
2022/07/25 08:32:34;;;;;;;14.57;11.63;;;26.80;99.90;;;;;;5033365;28;20495;-70
2022/07/25 08:35:02;;;;;;;13.07;11.15;;;26.80;99.90;;;;;;5065931;28;20049;-71
2022/07/25 08:37:28;;;;;;;17.23;10.73;;;26.70;99.90;;;;;;5061024;28;20061;-71
2022/07/25 08:39:54;;;;;;;15.13;12.25;;;26.40;99.90;;;;;;5051204;28;20487;-71
2022/07/25 08:42:21;;;;;;;14.82;11.40;;;26.10;99.90;;;;;;5087785;28;20051;-73
2022/07/25 08:44:59;;;;;;;12.95;11.02;;;25.90;99.90;;;;;;5037272;28;20049;-71
2022/07/25 08:47:27;;;;;;;14.30;10.68;;;25.70;99.90;;;;;;5052091;28;20052;-71
2022/07/25 08:49:54;;;;;;;15.70;10.90;;;25.70;99.90;;;;;;5036906;28;20049;-70
2022/07/25 08:52:21;;;;;;;12.73;10.85;;;25.80;99.90;;;;;;5036399;28;20048;-72
2022/07/25 08:54:49;;;;;;;14.30;11.07;;;26.10;99.90;;;;;;5044567;28;20060;-71
2022/07/25 08:57:16;;;;;;;13.13;10.55;;;26.40;99.90;;;;;;5048548;28;20045;-72
2022/07/25 08:59:43;;;;;;;16.27;10.48;;;26.60;99.90;;;;;;5020431;28;20053;-75
2022/07/25 09:02:13;;;;;;;11.68;8.90;;;26.60;99.90;;;;;;5037525;28;20045;-73
2022/07/25 09:04:39;;;;;;;13.15;8.68;;;26.50;99.90;;;;;;5035469;28;20040;-73
2022/07/25 09:07:08;;;;;;;12.27;9.30;;;26.40;99.90;;;;;;5085722;28;20036;-72
2022/07/25 09:09:37;;;;;;;9.77;8.20;;;26.40;99.90;;;;;;5050159;28;20072;-71
2022/07/25 09:12:04;;;;;;;11.20;8.75;;;26.30;99.90;;;;;;5050990;28;20053;-72
2022/07/25 09:14:40;;;;;;;12.68;8.70;;;26.10;99.90;;;;;;5063006;28;20049;-71
2022/07/25 09:17:06;;;;;;;10.38;8.18;;;25.90;99.90;;;;;;5036291;28;20045;-71
2022/07/25 09:19:32;;;;;;;11.27;8.23;;;25.80;99.90;;;;;;5035558;28;20085;-73
2022/07/25 09:22:04;;;;;;;12.55;7.90;;;25.50;99.90;;;;;;5041070;28;20130;-71
2022/07/25 09:24:31;;;;;;;9.70;8.35;;;25.40;99.90;;;;;;5036611;28;20060;-71
2022/07/25 09:26:59;;;;;;;9.90;8.43;;;25.40;99.90;;;;;;5036610;28;20465;-70
2022/07/25 09:29:30;;;;;;;11.48;9.77;;;25.40;99.90;;;;;;5053074;28;20045;-71
2022/07/25 09:32:03;;;;;;;11.80;8.85;;;25.40;99.90;;;;;;5037835;28;20444;-72
2022/07/25 09:34:38;;;;;;;13.20;9.10;;;25.30;99.90;;;;;;5034301;28;20048;-71
2022/07/25 09:37:09;;;;;;;10.80;8.45;;;25.30;99.90;;;;;;5069073;28;20510;-71
2022/07/25 09:39:42;;;;;;;10.35;8.40;;;25.30;99.90;;;;;;5085995;28;20088;-70
2022/07/25 09:42:26;;;;;;;9.90;7.70;;;25.20;99.90;;;;;;5086087;28;20041;-71
2022/07/25 09:45:11;;;;;;;10.80;7.07;;;25.20;99.90;;;;;;5051194;28;20091;-71
2022/07/25 09:47:59;;;;;;;10.93;7.30;;;25.30;99.90;;;;;;5048007;28;20075;-70
2022/07/25 09:50:27;;;;;;;9.20;7.45;;;25.50;99.90;;;;;;5048918;28;20079;-73
2022/07/25 09:52:56;;;;;;;9.80;8.00;;;25.40;99.90;;;;;;5032159;28;20055;-72
2022/07/25 09:55:23;;;;;;;8.75;7.75;;;25.40;99.90;;;;;;5047371;28;20052;-71
2022/07/25 09:57:51;;;;;;;10.68;7.55;;;25.70;99.90;;;;;;5052137;28;20094;-70
2022/07/25 10:00:23;;;;;;;8.60;7.70;;;25.80;99.90;;;;;;5035319;28;20084;-70
2022/07/25 10:02:55;;;;;;;8.68;7.10;;;26.00;99.90;;;;;;5048791;28;20049;-70
2022/07/25 10:05:27;;;;;;;9.88;8.50;;;26.10;99.90;;;;;;5051296;28;20045;-71
2022/07/25 10:07:55;;;;;;;11.82;7.63;;;26.00;99.90;;;;;;5083798;28;20167;-71
2022/07/25 10:10:29;;;;;;;11.40;8.43;;;26.10;99.90;;;;;;5047624;28;20510;-71
2022/07/25 10:13:14;;;;;;;10.02;6.95;;;26.20;99.90;;;;;;5033525;28;20113;-70
2022/07/25 10:15:43;;;;;;;10.10;7.72;;;26.30;99.90;;;;;;5047571;28;20044;-72
2022/07/25 10:18:10;;;;;;;9.65;8.05;;;26.40;99.90;;;;;;5046891;28;20069;-72
2022/07/25 10:20:36;;;;;;;11.10;7.45;;;26.30;99.90;;;;;;5046570;28;20041;-71
2022/07/25 10:23:04;;;;;;;9.52;7.20;;;26.40;99.90;;;;;;5083734;28;20178;-74
2022/07/25 10:25:30;;;;;;;9.32;6.75;;;26.30;99.90;;;;;;5050616;28;20041;-71
2022/07/25 10:28:08;;;;;;;7.30;6.25;;;26.40;99.90;;;;;;5063392;28;20060;-71
2022/07/25 10:30:37;;;;;;;8.45;6.10;;;26.40;99.90;;;;;;5080981;28;20049;-71
2022/07/25 10:33:05;;;;;;;6.28;5.18;;;26.40;99.90;;;;;;5086964;28;20498;-71
2022/07/25 10:35:32;;;;;;;7.60;5.15;;;26.30;99.90;;;;;;5061311;28;20053;-71
2022/07/25 10:38:02;;;;;;;7.68;4.93;;;26.30;99.90;;;;;;5017570;28;20045;-71
2022/07/25 10:40:37;;;;;;;6.22;4.05;;;26.30;99.90;;;;;;5032875;28;20159;-70
2022/07/25 10:43:11;;;;;;;4.28;3.75;;;26.30;99.90;;;;;;5063068;28;20048;-71
2022/07/25 10:45:39;;;;;;;5.13;3.22;;;26.40;99.90;;;;;;5052078;28;20049;-72
2022/07/25 10:48:07;;;;;;;3.47;3.08;;;26.50;99.00;;;;;;5033849;28;20473;-71
2022/07/25 10:50:33;;;;;;;3.92;3.03;;;26.30;98.60;;;;;;5034891;28;20275;-71
2022/07/25 10:52:59;;;;;;;3.10;2.80;;;26.40;98.20;;;;;;5066023;28;20476;-70
2022/07/25 10:55:27;;;;;;;4.10;2.40;;;26.40;98.00;;;;;;5029240;28;20447;-70
2022/07/25 10:58:03;;;;;;;2.58;2.30;;;26.30;96.20;;;;;;5033804;28;20056;-70
2022/07/25 11:00:29;;;;;;;3.83;2.13;;;26.40;96.50;;;;;;5065413;28;20037;-70
2022/07/25 11:02:56;;;;;;;3.03;2.35;;;26.40;96.60;;;;;;5035296;28;20132;-71
2022/07/25 11:05:22;;;;;;;2.70;2.50;;;26.30;96.50;;;;;;5049857;28;20041;-74
2022/07/25 11:07:52;;;;;;;4.05;2.05;;;26.20;96.90;;;;;;5051464;28;20102;-72
2022/07/25 11:10:26;;;;;;;2.80;2.45;;;26.00;97.30;;;;;;5015138;28;20073;-73
2022/07/25 11:12:53;;;;;;;2.35;2.15;;;25.80;96.70;;;;;;5084638;28;20067;-72
2022/07/25 11:15:23;;;;;;;3.72;2.10;;;25.70;96.70;;;;;;5034524;28;20045;-71
2022/07/25 11:17:54;;;;;;;3.83;2.00;;;25.60;97.10;;;;;;5051084;28;20049;-74
2022/07/25 11:20:20;;;;;;;3.33;1.67;;;25.40;99.10;;;;;;5065956;28;20057;-72
2022/07/25 11:22:54;;;;;;;3.05;1.50;;;25.10;98.40;;;;;;5034041;28;20085;-71
2022/07/25 11:25:22;;;;;;;2.00;1.80;;;24.80;99.90;;;;;;5032713;28;20072;-71
2022/07/25 11:27:59;;;;;;;1.90;1.50;;;24.50;99.90;;;;;;5034396;28;20045;-72
2022/07/25 11:30:27;;;;;;;4.10;1.88;;;24.20;99.90;;;;;;5034202;28;20052;-71
2022/07/25 11:32:56;;;;;;;2.75;1.70;;;23.70;99.90;;;;;;5037405;28;20059;-71
2022/07/25 11:35:28;;;;;;;3.95;2.13;;;23.50;99.90;;;;;;5050430;28;20041;-72
2022/07/25 11:37:55;;;;;;;3.80;1.90;;;23.50;99.90;;;;;;5045280;28;20114;-71
2022/07/25 11:40:22;;;;;;;3.83;1.92;;;23.50;99.90;;;;;;5050193;28;20087;-71
2022/07/25 11:42:51;;;;;;;3.47;2.20;;;23.60;99.90;;;;;;5049164;28;20052;-71
2022/07/25 11:45:26;;;;;;;5.00;2.30;;;23.70;99.90;;;;;;5034166;28;20041;-70
2022/07/25 11:48:13;;;;;;;4.88;2.63;;;24.00;99.90;;;;;;5051046;28;20487;-72
2022/07/25 11:50:41;;;;;;;5.68;2.33;;;24.20;99.90;;;;;;5057632;28;20091;-70
2022/07/25 11:53:10;;;;;;;3.80;2.55;;;24.20;99.90;;;;;;5031568;28;20129;-70
2022/07/25 11:55:41;;;;;;;4.50;2.75;;;24.20;99.90;;;;;;5033960;28;20521;-70
2022/07/25 11:58:09;;;;;;;4.75;2.42;;;24.30;99.90;;;;;;5066633;28;20519;-70
2022/07/25 12:00:40;;;;;;;3.88;2.63;;;24.20;99.90;;;;;;5032716;28;20057;-71
2022/07/25 12:03:11;;;;;;;4.00;2.72;;;24.30;99.90;;;;;;5033119;28;20056;-72
2022/07/25 12:05:37;;;;;;;6.93;3.00;;;24.30;99.90;;;;;;5085076;28;20079;-75
2022/07/25 12:08:11;;;;;;;5.80;3.20;;;24.40;99.90;;;;;;5040885;28;20052;-71
2022/07/25 12:10:37;;;;;;;5.97;2.97;;;24.40;99.90;;;;;;5046792;28;20467;-71
2022/07/25 12:13:05;;;;;;;7.85;3.08;;;24.60;99.90;;;;;;5064411;28;20056;-71
2022/07/25 12:15:34;;;;;;;5.30;2.80;;;24.50;99.90;;;;;;5048665;28;20136;-71
2022/07/25 12:18:01;;;;;;;6.25;2.90;;;24.40;99.90;;;;;;5050264;28;20052;-71
2022/07/25 12:20:30;;;;;;;7.80;2.72;;;24.30;99.90;;;;;;5081273;28;20063;-72
2022/07/25 12:22:59;;;;;;;6.22;3.20;;;24.30;99.90;;;;;;5083923;28;20049;-72
2022/07/25 12:25:25;;;;;;;7.63;3.70;;;24.20;99.90;;;;;;5033458;28;20049;-72
2022/07/25 12:27:51;;;;;;;6.15;3.55;;;24.30;99.90;;;;;;5031026;28;20059;-71
2022/07/25 12:30:17;;;;;;;7.15;2.92;;;24.40;99.90;;;;;;5046684;28;20491;-70
2022/07/25 12:32:44;;;;;;;4.40;3.00;;;24.60;99.90;;;;;;5016558;28;20045;-75
2022/07/25 12:35:12;;;;;;;5.63;2.78;;;24.70;99.90;;;;;;5049566;28;20041;-72
2022/07/25 12:37:39;;;;;;;5.32;2.72;;;25.00;99.90;;;;;;5049904;28;20061;-71